Time;durP1;ratioP1;P1;durP2;ratioP2;P2;SDS_P1;SDS_P2;PMS_P1;PMS_P2;Temp;Humidity;BMP_temperature;BMP_pressure;BME280_temperature;BME280_humidity;BME280_pressure;Samples;Min_cycle;Max_cycle;Signal;HPM_P1;HPM_P2
2021/12/04 00:00:28;;;;;;;24.52;15.50;;;;;;;3.22;100.00;99853.47;5255021;28;20032;-64
2021/12/04 00:02:59;;;;;;;26.05;15.68;;;;;;;3.26;100.00;99849.69;5271785;28;20052;-64
2021/12/04 00:05:31;;;;;;;21.92;15.25;;;;;;;3.26;100.00;99850.56;5264026;28;20479;-64
2021/12/04 00:08:02;;;;;;;23.88;15.73;;;;;;;3.19;100.00;99846.59;5267960;28;20581;-64
2021/12/04 00:10:34;;;;;;;23.90;15.52;;;;;;;3.17;100.00;99837.09;5269723;28;20498;-64
2021/12/04 00:13:05;;;;;;;24.75;15.68;;;;;;;3.20;100.00;99827.19;5269503;28;20048;-64
2021/12/04 00:15:37;;;;;;;23.02;14.80;;;;;;;3.22;100.00;99820.06;5263904;28;20048;-65
2021/12/04 00:18:08;;;;;;;21.83;14.65;;;;;;;3.18;100.00;99808.00;5258913;28;20552;-64
2021/12/04 00:20:41;;;;;;;20.80;14.13;;;;;;;3.18;100.00;99800.06;5259267;28;20040;-64
2021/12/04 00:23:12;;;;;;;18.42;13.52;;;;;;;3.14;100.00;99798.59;5264699;28;20036;-65
2021/12/04 00:25:44;;;;;;;21.10;13.18;;;;;;;3.15;100.00;99800.28;5266077;28;20552;-64
2021/12/04 00:28:15;;;;;;;22.33;14.27;;;;;;;3.12;100.00;99797.84;5262757;28;20028;-64
2021/12/04 00:30:47;;;;;;;22.40;14.50;;;;;;;3.18;100.00;99793.97;5261881;28;20040;-65
2021/12/04 00:33:22;;;;;;;20.15;14.15;;;;;;;3.19;100.00;99804.44;5259369;28;20048;-64
2021/12/04 00:35:58;;;;;;;;;;;;;;;3.23;100.00;99803.28;5266689;28;20035;-64
2021/12/04 00:49:49;;;;;;;21.85;14.52;;;;;;;3.25;100.00;99780.31;5270626;28;20032;-65
2021/12/04 00:52:21;;;;;;;24.48;14.55;;;;;;;3.23;100.00;99774.28;5262177;28;20029;-65
2021/12/04 00:54:52;;;;;;;20.42;14.65;;;;;;;3.23;100.00;99779.56;5263970;28;21399;-64
2021/12/04 00:57:24;;;;;;;20.67;14.88;;;;;;;3.25;100.00;99782.09;5260342;28;20037;-65
2021/12/04 00:59:55;;;;;;;24.52;15.10;;;;;;;3.23;100.00;99779.56;5260125;28;20651;-64
2021/12/04 01:02:27;;;;;;;26.17;15.25;;;;;;;3.26;100.00;99784.66;5257495;28;20039;-64
2021/12/04 01:04:58;;;;;;;22.30;14.98;;;;;;;3.27;100.00;99785.50;5257943;28;20118;-64
2021/12/04 01:07:30;;;;;;;22.85;15.60;;;;;;;3.29;100.00;99786.22;5258271;28;20139;-64
2021/12/04 01:10:05;;;;;;;22.83;15.52;;;;;;;3.26;100.00;99786.41;5260717;28;20180;-64
2021/12/04 01:12:36;;;;;;;26.23;16.50;;;;;;;3.29;100.00;99789.72;5266529;28;20177;-64
2021/12/04 01:15:08;;;;;;;25.13;15.40;;;;;;;3.29;100.00;99792.34;5263430;28;20115;-64
2021/12/04 01:17:40;;;;;;;24.33;15.43;;;;;;;3.27;100.00;99796.03;5262179;28;20747;-64
2021/12/04 01:20:11;;;;;;;23.25;16.17;;;;;;;3.31;100.00;99785.19;5259618;28;20493;-64
2021/12/04 01:22:42;;;;;;;26.38;16.05;;;;;;;3.33;100.00;99791.22;5269324;28;20115;-64
2021/12/04 01:25:14;;;;;;;23.33;15.88;;;;;;;3.38;100.00;99785.66;5260872;28;20443;-64
2021/12/04 01:27:46;;;;;;;22.70;16.17;;;;;;;3.28;100.00;99788.03;5259729;28;20459;-64
2021/12/04 01:30:17;;;;;;;22.17;15.70;;;;;;;3.37;100.00;99783.94;5261927;28;20032;-64
2021/12/04 01:32:49;;;;;;;23.63;15.75;;;;;;;3.36;100.00;99774.38;5257899;28;20032;-64
2021/12/04 01:35:20;;;;;;;25.70;15.60;;;;;;;3.36;100.00;99773.50;5263236;28;20060;-64
2021/12/04 01:37:51;;;;;;;23.63;15.55;;;;;;;3.34;100.00;99769.19;5262405;28;20542;-64
2021/12/04 01:40:23;;;;;;;24.60;15.52;;;;;;;3.29;100.00;99765.97;5263928;28;20150;-64
2021/12/04 01:42:54;;;;;;;19.63;14.57;;;;;;;3.36;100.00;99770.84;5270529;28;20088;-64
2021/12/04 01:45:26;;;;;;;21.33;14.52;;;;;;;3.33;100.00;99778.03;5268502;28;20120;-64
2021/12/04 01:48:02;;;;;;;21.58;14.65;;;;;;;3.40;100.00;99780.28;5267675;28;20102;-64
2021/12/04 01:50:35;;;;;;;21.33;14.77;;;;;;;3.41;100.00;99764.34;5266089;28;20040;-64
2021/12/04 01:53:06;;;;;;;21.95;15.27;;;;;;;3.36;100.00;99768.22;5272430;28;20020;-64
2021/12/04 01:55:38;;;;;;;21.63;14.55;;;;;;;3.37;100.00;99769.94;5269333;28;20390;-64
2021/12/04 01:58:11;;;;;;;21.27;14.93;;;;;;;3.37;100.00;99769.94;5269067;28;20592;-64
2021/12/04 02:00:42;;;;;;;21.60;14.63;;;;;;;3.36;100.00;99765.59;5265965;28;20036;-64
2021/12/04 02:03:14;;;;;;;21.02;13.63;;;;;;;3.47;100.00;99771.03;5267147;28;20447;-64
2021/12/04 02:05:46;;;;;;;21.77;14.90;;;;;;;3.38;100.00;99769.84;5266345;28;20033;-64
2021/12/04 02:08:20;;;;;;;21.27;13.88;;;;;;;3.44;100.00;99766.81;5268153;28;20105;-64
2021/12/04 02:10:56;;;;;;;22.55;14.13;;;;;;;3.43;100.00;99767.75;5262976;28;20039;-64
2021/12/04 02:13:27;;;;;;;20.48;14.23;;;;;;;3.33;100.00;99749.03;5265275;28;20548;-64
2021/12/04 02:16:02;;;;;;;22.75;14.60;;;;;;;3.41;100.00;99747.69;5269321;28;20032;-64
2021/12/04 02:18:33;;;;;;;22.55;14.63;;;;;;;3.36;100.00;99734.81;5266380;28;20060;-64
2021/12/04 02:21:04;;;;;;;23.48;14.00;;;;;;;3.36;100.00;99726.03;5268290;28;20089;-64
2021/12/04 02:23:36;;;;;;;20.77;14.00;;;;;;;3.36;100.00;99726.91;5268480;28;20031;-64
2021/12/04 02:26:08;;;;;;;22.42;14.18;;;;;;;3.34;100.00;99721.72;5260155;28;20391;-64
2021/12/04 02:28:43;;;;;;;24.25;14.80;;;;;;;3.40;100.00;99720.50;5265859;28;20494;-64
2021/12/04 02:31:14;;;;;;;24.80;14.98;;;;;;;3.39;100.00;99704.75;5268498;28;20070;-64
2021/12/04 02:33:46;;;;;;;23.55;14.77;;;;;;;3.42;100.00;99702.78;5262756;28;20033;-64
2021/12/04 02:36:17;;;;;;;24.67;14.50;;;;;;;3.37;100.00;99694.31;5262671;28;20541;-64
2021/12/04 02:38:52;;;;;;;21.08;14.00;;;;;;;3.44;100.00;99697.41;5263478;28;20053;-64
2021/12/04 02:41:24;;;;;;;25.98;14.57;;;;;;;3.35;100.00;99693.56;5269722;28;20055;-64
2021/12/04 02:43:55;;;;;;;23.15;14.48;;;;;;;3.38;100.00;99687.28;5267373;28;20029;-64
2021/12/04 02:46:33;;;;;;;19.92;13.30;;;;;;;3.32;100.00;99688.50;5268021;28;20044;-64
2021/12/04 02:49:06;;;;;;;24.20;14.57;;;;;;;3.30;100.00;99677.22;5262187;28;20028;-64
2021/12/04 02:51:37;;;;;;;22.17;14.68;;;;;;;3.32;100.00;99691.16;5270732;28;20024;-64
2021/12/04 02:54:11;;;;;;;23.60;14.32;;;;;;;3.36;100.00;99675.94;5266003;28;20029;-64
2021/12/04 02:56:44;;;;;;;24.83;14.30;;;;;;;3.38;100.00;99688.09;5270891;28;20128;-64
2021/12/04 02:59:17;;;;;;;21.33;14.60;;;;;;;3.29;100.00;99689.53;5270263;28;20032;-64
2021/12/04 03:01:52;;;;;;;23.23;15.02;;;;;;;3.29;100.00;99697.44;5267504;28;20024;-64
2021/12/04 03:04:25;;;;;;;23.27;14.82;;;;;;;3.36;100.00;99683.84;5269100;28;20032;-64
2021/12/04 03:06:56;;;;;;;23.92;14.68;;;;;;;3.39;100.00;99683.66;5267167;28;20038;-64
2021/12/04 03:09:27;;;;;;;24.10;14.88;;;;;;;3.34;100.00;99684.81;5262413;28;20045;-64
2021/12/04 03:12:01;;;;;;;21.33;14.30;;;;;;;3.32;100.00;99691.16;5272275;28;20033;-64
2021/12/04 03:14:33;;;;;;;22.67;14.80;;;;;;;3.34;100.00;99676.06;5271912;28;20052;-64
2021/12/04 03:17:05;;;;;;;19.92;14.27;;;;;;;3.32;100.00;99670.91;5272111;28;20911;-64
2021/12/04 03:19:39;;;;;;;20.75;13.90;;;;;;;3.39;100.00;99668.69;5268739;28;20620;-64
2021/12/04 03:22:10;;;;;;;19.92;13.32;;;;;;;3.39;100.00;99659.94;5267347;28;20040;-64
2021/12/04 03:24:43;;;;;;;19.02;13.02;;;;;;;3.45;100.00;99663.03;5270498;28;20029;-64
2021/12/04 03:27:16;;;;;;;18.55;12.65;;;;;;;3.45;100.00;99664.81;5265788;28;20117;-64
2021/12/04 03:29:56;;;;;;;19.00;12.32;;;;;;;3.47;100.00;99655.00;5269025;28;20016;-64
2021/12/04 03:35:13;;;;;;;19.83;13.13;;;;;;;3.37;100.00;99649.50;5271500;28;20060;-64
2021/12/04 03:43:15;;;;;;;15.05;10.57;;;;;;;3.37;100.00;99643.38;5268754;28;20040;-64
2021/12/04 03:45:52;;;;;;;14.48;9.70;;;;;;;3.44;100.00;99642.88;5272620;28;20036;-64
2021/12/04 03:49:07;;;;;;;15.18;10.23;;;;;;;3.46;100.00;99640.97;5270876;28;20512;-64
2021/12/04 03:51:20;;;;;;;16.60;10.05;;;;;;;3.41;100.00;99632.53;5266896;28;20033;-64
2021/12/04 03:53:52;;;;;;;15.38;10.00;;;;;;;3.42;100.00;99631.59;5271619;28;20028;-64
2021/12/04 03:56:24;;;;;;;13.93;9.38;;;;;;;3.46;100.00;99625.16;5264720;28;20494;-65
2021/12/04 03:58:55;;;;;;;13.23;9.38;;;;;;;3.44;100.00;99628.84;5269814;28;20108;-64
2021/12/04 04:01:26;;;;;;;13.63;9.07;;;;;;;3.44;100.00;99627.06;5269920;28;20050;-64
2021/12/04 04:03:58;;;;;;;12.32;9.13;;;;;;;3.47;100.00;99634.78;5265023;28;20384;-64
2021/12/04 04:06:29;;;;;;;13.60;8.77;;;;;;;3.38;100.00;99637.19;5267649;28;20041;-64
2021/12/04 04:09:03;;;;;;;12.57;8.15;;;;;;;3.36;100.00;99633.75;5271096;28;20045;-64
2021/12/04 04:11:36;;;;;;;11.38;7.90;;;;;;;3.32;100.00;99622.59;5271737;28;20111;-64
2021/12/04 04:14:08;;;;;;;11.20;8.13;;;;;;;3.34;100.00;99625.97;5265424;28;20019;-64
2021/12/04 04:16:40;;;;;;;11.20;7.63;;;;;;;3.41;100.00;99621.97;5269903;28;20028;-64
2021/12/04 04:19:12;;;;;;;12.23;7.90;;;;;;;3.33;100.00;99611.09;5270023;28;20463;-64
2021/12/04 04:21:43;;;;;;;10.35;7.82;;;;;;;3.39;100.00;99617.75;5265304;28;20086;-64
2021/12/04 04:24:17;;;;;;;11.52;7.88;;;;;;;3.43;100.00;99611.31;5268363;28;20040;-64
2021/12/04 04:26:48;;;;;;;11.38;7.95;;;;;;;3.46;100.00;99609.34;5269473;28;20027;-64
2021/12/04 04:29:20;;;;;;;11.23;8.10;;;;;;;3.42;100.00;99614.94;5265579;28;20503;-64
2021/12/04 04:31:54;;;;;;;10.55;7.07;;;;;;;3.40;100.00;99614.19;5271908;28;20028;-64
2021/12/04 04:34:33;;;;;;;11.77;7.75;;;;;;;3.49;100.00;99603.00;5266478;28;20151;-64
2021/12/04 05:00:05;;;;;;;11.13;6.88;;;;;;;3.52;100.00;99592.25;5263752;28;20147;-64
2021/12/04 05:10:13;;;;;;;10.20;7.00;;;;;;;3.44;100.00;99591.94;5267390;28;20437;-64
2021/12/04 05:11:12;;;;;;;9.93;6.60;;;;;;;3.49;100.00;99588.03;5269037;28;20064;-64
2021/12/04 05:13:44;;;;;;;10.40;6.95;;;;;;;3.48;100.00;99582.88;5264498;28;20062;-64
2021/12/04 05:16:17;;;;;;;9.15;6.55;;;;;;;3.48;100.00;99582.88;5266349;28;20840;-64
2021/12/04 05:19:01;;;;;;;9.75;6.22;;;;;;;3.45;100.00;99564.59;5267121;28;20033;-64
2021/12/04 05:21:32;;;;;;;7.97;6.13;;;;;;;3.44;100.00;99565.56;5267643;28;20020;-64
2021/12/04 05:24:04;;;;;;;9.45;6.25;;;;;;;3.45;100.00;99567.25;5268425;28;20036;-64
2021/12/04 05:26:35;;;;;;;8.77;5.80;;;;;;;3.44;100.00;99571.69;5265938;28;20491;-64
2021/12/04 05:29:06;;;;;;;10.52;6.00;;;;;;;3.47;100.00;99567.97;5272123;28;20024;-64
2021/12/04 05:31:37;;;;;;;9.00;5.78;;;;;;;3.45;100.00;99569.88;5266807;28;20032;-64
2021/12/04 05:34:09;;;;;;;8.43;6.13;;;;;;;3.52;100.00;99571.16;5271228;28;20029;-64
2021/12/04 05:36:40;;;;;;;7.82;5.75;;;;;;;3.52;100.00;99573.81;5266711;28;20029;-64
2021/12/04 05:39:11;;;;;;;8.73;6.22;;;;;;;3.52;100.00;99568.53;5260321;28;20474;-64
2021/12/04 05:41:43;;;;;;;7.88;5.50;;;;;;;3.57;100.00;99574.34;5267957;28;20487;-64
2021/12/04 05:44:16;;;;;;;9.63;5.95;;;;;;;3.47;100.00;99565.34;5272743;28;20115;-64
2021/12/04 05:49:53;;;;;;;8.75;5.93;;;;;;;3.52;100.00;99564.09;5270937;28;20627;-64
2021/12/04 05:55:19;;;;;;;8.68;5.38;;;;;;;3.47;100.00;99563.56;5266413;28;20032;-65
2021/12/04 05:57:50;;;;;;;8.93;5.85;;;;;;;3.52;100.00;99555.34;5269435;28;20367;-64
2021/12/04 06:00:24;;;;;;;8.05;5.38;;;;;;;3.55;100.00;99557.78;5272420;28;20025;-64
2021/12/04 06:02:55;;;;;;;9.13;5.85;;;;;;;3.50;100.00;99559.88;5269568;28;20452;-64
2021/12/04 06:05:26;;;;;;;9.00;6.10;;;;;;;3.53;100.00;99555.25;5267648;28;20139;-64
2021/12/04 06:07:58;;;;;;;9.85;5.88;;;;;;;3.55;100.00;99555.16;5268156;28;20027;-64
2021/12/04 06:10:30;;;;;;;9.10;5.75;;;;;;;3.62;100.00;99559.03;5271657;28;20036;-64
2021/12/04 06:13:01;;;;;;;9.20;5.72;;;;;;;3.53;100.00;99546.50;5272900;28;20016;-64
2021/12/04 06:15:33;;;;;;;9.07;6.00;;;;;;;3.60;100.00;99552.19;5267451;28;20065;-64
2021/12/04 06:18:05;;;;;;;9.95;6.13;;;;;;;3.60;100.00;99545.09;5266200;28;20025;-64
2021/12/04 06:23:28;;;;;;;9.93;5.70;;;;;;;3.60;100.00;99549.53;5268770;28;20024;-64
2021/12/04 06:26:00;;;;;;;9.55;5.75;;;;;;;3.55;100.00;99544.59;5267210;28;20033;-64
2021/12/04 06:28:32;;;;;;;9.55;6.35;;;;;;;3.53;100.00;99543.84;5273615;28;20044;-64
2021/12/04 06:31:04;;;;;;;10.30;6.00;;;;;;;3.57;100.00;99547.97;5274415;28;20466;-64
2021/12/04 06:33:37;;;;;;;10.02;6.35;;;;;;;3.59;100.00;99548.72;5278452;28;20028;-64
2021/12/04 06:36:09;;;;;;;9.93;6.13;;;;;;;3.56;100.00;99550.72;5278292;28;20417;-64
2021/12/04 06:38:41;;;;;;;8.85;5.97;;;;;;;3.56;100.00;99553.34;5276270;28;20036;-64
2021/12/04 06:41:12;;;;;;;10.18;6.05;;;;;;;3.57;100.00;99553.25;5276879;28;20024;-64
2021/12/04 06:43:51;;;;;;;8.95;5.70;;;;;;;3.57;100.00;99549.75;5276529;28;20032;-64
2021/12/04 06:46:23;;;;;;;9.27;5.78;;;;;;;3.62;100.00;99560.81;5277933;28;20024;-64
2021/12/04 06:49:04;;;;;;;9.32;6.00;;;;;;;3.63;100.00;99551.97;5272608;28;20032;-64
2021/12/04 06:51:41;;;;;;;9.70;6.05;;;;;;;3.55;100.00;99547.22;5277280;28;20093;-64
2021/12/04 06:54:18;;;;;;;10.35;5.88;;;;;;;3.59;100.00;99553.97;5276636;28;20467;-64
2021/12/04 06:56:49;;;;;;;10.55;6.18;;;;;;;3.66;100.00;99564.94;5276102;28;20038;-64
2021/12/04 06:59:25;;;;;;;10.65;6.65;;;;;;;3.61;100.00;99565.28;5277191;28;20024;-64
2021/12/04 07:01:57;;;;;;;8.77;5.82;;;;;;;3.54;100.00;99556.91;5268340;28;20024;-64
2021/12/04 07:04:34;;;;;;;8.77;5.65;;;;;;;3.58;100.00;99562.00;5268939;28;20081;-64
2021/12/04 07:07:07;;;;;;;10.65;6.40;;;;;;;3.58;100.00;99560.19;5267120;28;20046;-64
2021/12/04 07:09:39;;;;;;;11.35;6.13;;;;;;;3.62;100.00;99553.75;5266438;28;20052;-64
2021/12/04 07:12:11;;;;;;;11.02;6.35;;;;;;;3.60;100.00;99557.47;5267226;28;20142;-64
2021/12/04 07:14:43;;;;;;;11.07;6.18;;;;;;;3.63;100.00;99565.16;5265734;28;20049;-64
2021/12/04 07:17:14;;;;;;;11.30;6.63;;;;;;;3.66;100.00;99555.25;5266892;28;20032;-64
2021/12/04 07:19:45;;;;;;;9.50;5.93;;;;;;;3.66;100.00;99554.38;5267115;28;20460;-64
2021/12/04 07:22:17;;;;;;;12.05;6.18;;;;;;;3.67;100.00;99551.66;5266056;28;20047;-64
2021/12/04 07:24:48;;;;;;;11.30;6.70;;;;;;;3.64;100.00;99554.50;5268940;28;20483;-64
2021/12/04 07:27:19;;;;;;;10.52;6.65;;;;;;;3.62;100.00;99552.91;5270430;28;20149;-64
2021/12/04 07:29:51;;;;;;;11.60;7.05;;;;;;;3.66;100.00;99549.13;5267686;28;20404;-64
2021/12/04 07:32:25;;;;;;;10.18;6.15;;;;;;;3.70;100.00;99554.09;5270190;28;20040;-64
2021/12/04 07:34:56;;;;;;;12.38;6.90;;;;;;;3.66;100.00;99542.06;5266616;28;20470;-64
2021/12/04 07:37:27;;;;;;;10.35;5.93;;;;;;;3.69;100.00;99544.47;5266065;28;20024;-64
2021/12/04 07:39:59;;;;;;;10.27;6.07;;;;;;;3.73;100.00;99553.88;5266291;28;20044;-64
2021/12/04 07:42:30;;;;;;;12.38;6.40;;;;;;;3.70;100.00;99545.31;5262401;28;20032;-64
2021/12/04 07:45:02;;;;;;;10.25;6.05;;;;;;;3.71;100.00;99534.66;5264873;28;20036;-64
2021/12/04 07:47:34;;;;;;;9.27;6.25;;;;;;;3.69;100.00;99539.19;5264978;28;20124;-65
2021/12/04 07:50:07;;;;;;;10.05;5.85;;;;;;;3.75;100.00;99537.94;5263863;28;20032;-64
2021/12/04 07:52:39;;;;;;;9.48;5.90;;;;;;;3.74;100.00;99536.25;5259331;28;20048;-64
2021/12/04 07:55:10;;;;;;;10.02;6.07;;;;;;;3.68;100.00;99537.53;5256892;28;20134;-64
2021/12/04 07:57:42;;;;;;;10.95;6.20;;;;;;;3.76;100.00;99544.03;5262669;28;20070;-64
2021/12/04 08:00:16;;;;;;;10.60;6.05;;;;;;;3.70;100.00;99529.50;5257998;28;20153;-64
2021/12/04 08:02:48;;;;;;;10.25;6.65;;;;;;;3.72;100.00;99524.94;5263887;28;20035;-64
2021/12/04 08:05:20;;;;;;;10.07;6.45;;;;;;;3.78;100.00;99531.59;5264827;28;20447;-64
2021/12/04 08:07:51;;;;;;;14.23;6.65;;;;;;;3.78;100.00;99523.69;5264462;28;20174;-64
2021/12/04 08:10:23;;;;;;;11.32;6.80;;;;;;;3.76;100.00;99526.44;5264398;28;20082;-64
2021/12/04 08:12:54;;;;;;;9.80;6.00;;;;;;;3.80;100.00;99525.28;5264776;28;20500;-64
2021/12/04 08:15:25;;;;;;;9.45;5.93;;;;;;;3.78;100.00;99518.41;5263350;28;20028;-64
2021/12/04 08:17:57;;;;;;;12.48;7.43;;;;;;;3.81;100.00;99511.13;5263707;28;20059;-64
2021/12/04 08:20:28;;;;;;;12.10;6.78;;;;;;;3.82;100.00;99506.72;5266750;28;21309;-64
2021/12/04 08:22:59;;;;;;;13.65;7.05;;;;;;;3.87;100.00;99513.34;5270449;28;20032;-64
2021/12/04 08:25:31;;;;;;;11.48;7.32;;;;;;;3.84;100.00;99505.66;5267816;28;20024;-64
2021/12/04 08:28:03;;;;;;;13.38;7.35;;;;;;;3.85;100.00;99498.56;5271514;28;20144;-64
2021/12/04 08:30:39;;;;;;;11.77;7.38;;;;;;;3.87;100.00;99496.66;5272215;28;20131;-64
2021/12/04 08:33:13;;;;;;;11.52;7.15;;;;;;;3.91;100.00;99488.44;5271415;28;20505;-64
2021/12/04 08:35:44;;;;;;;11.07;6.78;;;;;;;3.91;100.00;99490.22;5264195;28;20519;-64
2021/12/04 08:38:16;;;;;;;10.98;6.68;;;;;;;3.91;100.00;99492.84;5264096;28;20036;-65
2021/12/04 08:40:48;;;;;;;11.35;7.00;;;;;;;3.89;100.00;99486.84;5271215;28;20079;-64
2021/12/04 08:43:19;;;;;;;11.45;7.38;;;;;;;3.92;100.00;99486.63;5271861;28;20024;-64
2021/12/04 08:45:51;;;;;;;12.60;7.00;;;;;;;3.89;100.00;99477.16;5273732;28;20036;-64
2021/12/04 08:48:22;;;;;;;10.50;7.05;;;;;;;3.93;100.00;99477.75;5274149;28;20028;-64
2021/12/04 08:50:54;;;;;;;10.90;6.93;;;;;;;3.92;100.00;99470.81;5271866;28;20475;-63
2021/12/04 08:53:26;;;;;;;11.02;6.90;;;;;;;3.95;100.00;99470.59;5270796;28;20383;-64
2021/12/04 08:55:58;;;;;;;10.55;6.53;;;;;;;3.98;100.00;99467.72;5273130;28;20043;-64
2021/12/04 08:58:29;;;;;;;10.25;7.07;;;;;;;4.02;100.00;99455.16;5268966;28;20040;-64
2021/12/04 09:01:04;;;;;;;10.45;7.03;;;;;;;4.06;100.00;99465.38;5258392;28;20226;-64
2021/12/04 09:03:39;;;;;;;10.95;7.40;;;;;;;4.06;100.00;99468.00;5264213;28;20063;-64
2021/12/04 09:06:11;;;;;;;12.55;9.15;;;;;;;4.13;100.00;99478.97;5262922;28;20028;-64
2021/12/04 09:08:42;;;;;;;14.40;8.05;;;;;;;4.17;100.00;99474.34;5266336;28;20049;-64
2021/12/04 09:11:18;;;;;;;13.15;8.85;;;;;;;4.18;100.00;99476.00;5266834;28;20495;-64
2021/12/04 09:13:51;;;;;;;14.60;8.75;;;;;;;4.20;100.00;99479.38;5263638;28;20083;-64
2021/12/04 09:16:24;;;;;;;13.07;7.63;;;;;;;4.23;100.00;99474.72;5272259;28;20063;-64
2021/12/04 09:18:56;;;;;;;14.10;8.63;;;;;;;4.26;100.00;99465.75;5268369;28;20040;-64
2021/12/04 09:21:28;;;;;;;14.30;8.27;;;;;;;4.31;100.00;99458.31;5257131;28;20020;-64
2021/12/04 09:24:06;;;;;;;12.52;7.93;;;;;;;4.25;100.00;99448.22;5255742;28;20483;-64
2021/12/04 10:00:38;;;;;;;14.07;9.32;;;;;;;4.34;100.00;99429.06;5263280;28;20040;-64
2021/12/04 10:03:31;;;;;;;16.25;9.82;;;;;;;4.35;100.00;99429.91;5262816;28;20061;-64
2021/12/04 10:14:50;;;;;;;19.08;12.15;;;;;;;4.36;100.00;99421.88;5259988;28;20032;-64
2021/12/04 10:23:21;;;;;;;17.25;10.27;;;;;;;4.40;100.00;99419.84;5255094;28;20123;-64
2021/12/04 10:34:30;;;;;;;19.45;12.13;;;;;;;4.40;100.00;99389.00;5257634;28;20028;-64
2021/12/04 10:37:12;;;;;;;20.33;11.57;;;;;;;4.39;100.00;99381.19;5253897;28;20032;-64
2021/12/04 10:39:43;;;;;;;23.85;15.23;;;;;;;4.42;100.00;99378.31;5257493;28;20572;-64
2021/12/04 10:42:21;;;;;;;24.83;18.13;;;;;;;4.49;100.00;99379.56;5257618;28;20049;-64
2021/12/04 10:44:55;;;;;;;20.27;13.60;;;;;;;4.45;100.00;99375.44;5253884;28;20438;-64
2021/12/04 10:47:27;;;;;;;22.40;14.15;;;;;;;4.53;100.00;99373.09;5256564;28;20028;-64
2021/12/04 10:52:52;;;;;;;22.83;15.73;;;;;;;4.50;100.00;99363.56;5252465;28;20468;-64
2021/12/04 11:04:39;;;;;;;13.63;8.67;;;;;;;4.70;100.00;99342.75;5257655;28;20138;-64
2021/12/04 11:19:04;;;;;;;16.85;11.30;;;;;;;4.88;100.00;99314.91;5263863;28;20048;-64
2021/12/04 11:22:11;;;;;;;20.75;13.25;;;;;;;4.92;100.00;99318.16;5263809;28;20036;-64
2021/12/04 11:27:50;;;;;;;18.67;13.57;;;;;;;5.10;100.00;99315.84;5259017;28;20475;-64
2021/12/04 11:38:39;;;;;;;14.95;9.98;;;;;;;5.14;100.00;99305.88;5265014;28;20079;-64
2021/12/04 11:41:17;;;;;;;14.80;9.90;;;;;;;5.16;100.00;99301.31;5258628;28;20592;-64
2021/12/04 11:46:44;;;;;;;14.00;9.90;;;;;;;5.07;100.00;99303.72;5269339;28;20048;-64
2021/12/04 11:49:21;;;;;;;13.13;8.93;;;;;;;5.05;100.00;99303.00;5257238;28;20128;-64
2021/12/04 11:52:00;;;;;;;12.38;9.57;;;;;;;5.03;100.00;99296.19;5261656;28;20416;-64
2021/12/04 11:54:42;;;;;;;14.68;10.15;;;;;;;5.00;100.00;99277.91;5260916;28;20351;-64
2021/12/04 11:57:15;;;;;;;13.57;10.20;;;;;;;5.05;100.00;99291.59;5260919;28;20024;-63
2021/12/04 11:59:47;;;;;;;15.32;10.82;;;;;;;5.01;100.00;99279.59;5260809;28;20020;-64
2021/12/04 12:02:24;;;;;;;14.43;10.75;;;;;;;5.04;100.00;99280.19;5254580;28;20617;-64
2021/12/04 12:04:56;;;;;;;14.13;10.63;;;;;;;5.04;100.00;99274.06;5265309;28;20040;-64
2021/12/04 12:07:30;;;;;;;16.27;11.50;;;;;;;5.00;100.00;99268.16;5260124;28;20033;-64
2021/12/04 12:10:07;;;;;;;14.93;10.73;;;;;;;5.01;100.00;99271.66;5258217;28;20051;-64
2021/12/04 12:12:41;;;;;;;14.45;10.73;;;;;;;5.02;100.00;99271.53;5267982;28;20078;-63
2021/12/04 12:15:17;;;;;;;;;;;;;;;5.08;100.00;99276.34;5263750;28;20021;-63
2021/12/04 12:17:49;;;;;;;14.32;10.15;;;;;;;5.02;100.00;99274.16;5259710;28;20005;-64
2021/12/04 12:20:43;;;;;;;15.38;11.07;;;;;;;5.03;100.00;99264.47;5260987;28;20757;-64
2021/12/04 12:23:18;;;;;;;13.98;10.93;;;;;;;4.99;100.00;99257.75;5260776;28;20166;-63
2021/12/04 12:26:09;;;;;;;16.88;11.82;;;;;;;5.02;100.00;99260.13;5260778;28;20047;-64
2021/12/04 12:36:02;;;;;;;15.13;10.82;;;;;;;5.01;100.00;99269.03;5267680;28;20028;-64
2021/12/04 12:37:18;;;;;;;17.83;11.18;;;;;;;5.00;100.00;99273.44;5273499;28;20340;-64
2021/12/04 12:39:56;;;;;;;18.55;11.38;;;;;;;4.99;100.00;99277.06;5265509;28;20111;-64
2021/12/04 12:42:34;;;;;;;17.63;11.20;;;;;;;5.02;100.00;99276.81;5276579;28;20040;-64
2021/12/04 12:45:25;;;;;;;17.95;11.95;;;;;;;4.97;100.00;99283.44;5262374;28;20039;-64
2021/12/04 12:48:03;;;;;;;18.02;12.57;;;;;;;4.98;100.00;99282.47;5272423;28;20063;-64
2021/12/04 12:50:37;;;;;;;22.17;13.32;;;;;;;4.96;100.00;99273.81;5270540;28;20115;-64
2021/12/04 12:53:11;;;;;;;;;;;;;;;5.03;100.00;99278.50;5276167;28;20044;-65
2021/12/04 12:55:47;;;;;;;22.60;13.30;;;;;;;4.98;100.00;99269.25;5271467;28;19916;-65
2021/12/04 12:58:25;;;;;;;24.83;15.07;;;;;;;4.95;100.00;99265.06;5269537;28;20085;-65
2021/12/04 13:12:52;;;;;;;42.40;19.75;;;;;;;4.95;100.00;99253.63;5270192;28;20503;-65
2021/12/04 13:15:35;;;;;;;37.13;20.08;;;;;;;4.92;100.00;99260.00;5263590;28;20110;-65
2021/12/04 13:18:17;;;;;;;37.90;20.45;;;;;;;4.96;100.00;99256.16;5268251;28;20053;-65
2021/12/04 13:20:52;;;;;;;37.42;20.25;;;;;;;4.98;100.00;99261.31;5268398;28;20039;-66
2021/12/04 13:23:24;;;;;;;36.88;19.10;;;;;;;5.04;100.00;99252.91;5264265;28;20025;-65
2021/12/04 13:25:59;;;;;;;33.65;19.02;;;;;;;4.93;100.00;99253.78;5268327;28;20032;-66
2021/12/04 13:28:33;;;;;;;33.08;18.15;;;;;;;4.95;100.00;99254.50;5271698;28;20236;-65
2021/12/04 13:31:05;;;;;;;36.30;18.83;;;;;;;4.96;100.00;99250.88;5263990;28;20032;-65
2021/12/04 13:33:39;;;;;;;30.20;17.48;;;;;;;4.92;100.00;99249.44;5265491;28;20547;-65
2021/12/04 13:36:37;;;;;;;32.95;18.20;;;;;;;4.99;100.00;99245.34;5270713;28;20039;-65
2021/12/04 13:39:12;;;;;;;29.48;16.90;;;;;;;4.95;100.00;99248.34;5268114;28;20124;-66
2021/12/04 13:41:45;;;;;;;29.20;17.33;;;;;;;4.91;100.00;99250.41;5269205;28;20028;-65
2021/12/04 13:44:19;;;;;;;29.42;16.65;;;;;;;4.97;100.00;99255.22;5265964;28;20036;-66
2021/12/04 13:46:54;;;;;;;30.40;17.20;;;;;;;4.94;100.00;99251.97;5267689;28;20039;-66
2021/12/04 13:49:32;;;;;;;36.72;16.92;;;;;;;4.97;100.00;99241.16;5262905;28;20094;-65
2021/12/04 13:52:08;;;;;;;28.50;17.23;;;;;;;4.96;100.00;99256.16;5274721;28;20496;-66
2021/12/04 13:54:48;;;;;;;25.73;15.98;;;;;;;5.01;100.00;99250.53;5266329;28;20467;-66
2021/12/04 13:57:19;;;;;;;37.25;16.95;;;;;;;4.93;100.00;99251.13;5272143;28;20032;-66
2021/12/04 13:59:57;;;;;;;35.15;17.77;;;;;;;4.96;100.00;99253.50;5266994;28;20024;-66
2021/12/04 14:02:31;;;;;;;28.20;16.45;;;;;;;4.98;100.00;99246.31;5268792;28;20098;-66
2021/12/04 14:05:12;;;;;;;32.05;17.27;;;;;;;4.93;100.00;99240.56;5268422;28;20107;-66
2021/12/04 14:07:49;;;;;;;30.25;16.92;;;;;;;4.93;100.00;99237.91;5265427;28;20079;-66
2021/12/04 14:10:30;;;;;;;33.80;17.02;;;;;;;4.94;100.00;99249.31;5263777;28;20060;-65
2021/12/04 14:13:03;;;;;;;29.77;18.00;;;;;;;4.86;100.00;99250.75;5259025;28;20036;-66
2021/12/04 14:15:35;;;;;;;34.67;18.80;;;;;;;4.87;100.00;99256.88;5268965;28;20028;-65
2021/12/04 14:18:09;;;;;;;34.90;18.70;;;;;;;4.85;100.00;99254.38;5261308;28;20372;-66
2021/12/04 14:20:47;;;;;;;35.97;18.95;;;;;;;4.84;100.00;99257.13;5266927;28;20036;-66
2021/12/04 14:23:19;;;;;;;33.75;18.50;;;;;;;4.93;100.00;99253.78;5261164;28;20260;-65
2021/12/04 14:25:54;;;;;;;35.88;17.80;;;;;;;4.92;100.00;99260.00;5267367;28;20095;-66
2021/12/04 14:28:37;;;;;;;34.55;18.73;;;;;;;4.85;100.00;99266.72;5264387;28;20063;-66
2021/12/04 14:31:11;;;;;;;31.92;17.27;;;;;;;4.78;100.00;99270.84;5259555;28;20380;-66
2021/12/04 14:33:42;;;;;;;31.75;16.05;;;;;;;4.76;100.00;99275.41;5259446;28;20031;-66
2021/12/04 14:36:18;;;;;;;27.52;15.88;;;;;;;4.73;100.00;99284.38;5261128;28;20056;-65
2021/12/04 14:38:49;;;;;;;24.33;14.07;;;;;;;4.71;100.00;99291.59;5262727;28;20032;-65
2021/12/04 14:41:22;;;;;;;26.08;14.48;;;;;;;4.67;100.00;99283.06;5266177;28;20071;-65